createdAt,value
2023-03-05T00:00:58.860Z,50.852867
2023-03-05T00:01:58.843Z,50.852802
2023-03-05T00:02:58.872Z,50.852795
2023-03-05T00:03:58.929Z,50.852764
2023-03-05T00:04:58.832Z,50.852901
2023-03-05T00:05:58.858Z,50.852924
2023-03-05T00:06:58.820Z,50.852928
2023-03-05T00:07:58.813Z,50.852974
2023-03-05T00:08:58.839Z,50.852848
2023-03-05T00:09:58.799Z,50.852848
2023-03-05T00:10:58.781Z,50.852551
2023-03-05T00:11:58.785Z,50.852673
2023-03-05T00:12:58.774Z,50.853043
2023-03-05T00:14:05.800Z,50.852947
2023-03-05T00:14:58.774Z,50.853119
2023-03-05T00:15:58.778Z,50.852638
2023-03-05T00:16:58.773Z,50.852760
2023-03-05T00:17:58.744Z,50.852772
2023-03-05T00:18:58.737Z,50.852882
2023-03-05T00:19:59.993Z,50.852772
2023-03-05T00:20:58.732Z,50.852753
2023-03-05T00:21:58.709Z,50.852818
2023-03-05T00:22:58.729Z,50.852787
2023-03-05T00:23:58.701Z,50.852722
2023-03-05T00:24:58.693Z,50.852798
2023-03-05T00:25:58.686Z,50.852730
2023-03-05T00:26:58.696Z,50.852715
2023-03-05T00:27:58.672Z,50.852730
2023-03-05T00:28:58.801Z,50.852791
2023-03-05T00:29:58.681Z,50.852779
2023-03-05T00:30:58.685Z,50.852764
2023-03-05T00:31:58.745Z,50.852768
2023-03-05T00:32:58.648Z,50.852772
2023-03-05T00:33:58.644Z,50.852795
2023-03-05T00:34:58.649Z,50.852772
2023-03-05T00:35:58.662Z,50.852837
2023-03-05T00:36:58.626Z,50.852737
2023-03-05T00:37:58.619Z,50.852825
2023-03-05T00:38:58.622Z,50.852871
2023-03-05T00:39:58.708Z,50.852764
2023-03-05T00:40:58.621Z,50.852749
2023-03-05T00:41:58.592Z,50.852734
2023-03-05T00:42:58.587Z,50.852665
2023-03-05T00:43:58.577Z,50.852718
2023-03-05T00:44:58.563Z,50.852715
2023-03-05T00:45:58.550Z,50.852844
2023-03-05T00:46:58.578Z,50.852806
2023-03-05T00:47:58.607Z,50.852818
2023-03-05T00:48:58.540Z,50.852829
2023-03-05T00:49:58.538Z,50.852917
2023-03-05T00:50:58.532Z,50.852779
2023-03-05T00:51:58.530Z,50.852779
2023-03-05T00:52:58.540Z,50.852779
2023-03-05T00:53:58.518Z,50.852779
2023-03-05T00:54:58.505Z,50.852779
2023-03-05T00:55:58.502Z,50.852779
2023-03-05T00:56:58.497Z,50.852779
2023-03-05T00:57:58.505Z,50.852779
2023-03-05T00:58:58.479Z,50.852779
2023-03-05T00:59:58.482Z,50.852779
2023-03-05T01:00:58.486Z,50.852779
2023-03-05T01:01:58.495Z,50.852779
2023-03-05T01:02:58.462Z,50.852779
2023-03-05T01:03:58.502Z,50.852779
2023-03-05T01:04:58.466Z,50.852779
2023-03-05T01:05:58.435Z,50.852779
2023-03-05T01:06:58.443Z,50.852779
2023-03-05T01:07:58.417Z,50.852779
2023-03-05T01:08:58.415Z,50.852779
2023-03-05T01:09:58.457Z,50.852779
2023-03-05T01:10:58.464Z,50.852779
2023-03-05T01:11:58.398Z,50.852779
2023-03-05T01:12:58.387Z,50.852779
2023-03-05T01:13:58.376Z,50.852779
2023-03-05T01:14:58.369Z,50.852779
2023-03-05T01:15:58.448Z,50.852779
2023-03-05T01:16:58.470Z,50.852779
2023-03-05T01:17:58.360Z,50.852779
2023-03-05T01:18:58.364Z,50.852779
2023-03-05T01:19:58.355Z,50.852779
2023-03-05T01:20:58.329Z,50.852779
2023-03-05T01:21:58.345Z,50.852779
2023-03-05T01:22:58.314Z,50.852779
2023-03-05T01:23:58.307Z,50.852779
2023-03-05T01:24:58.338Z,50.852779
2023-03-05T01:25:58.315Z,50.852779
2023-03-05T01:26:58.289Z,50.852779
2023-03-05T01:27:58.309Z,50.852779
2023-03-05T01:28:58.288Z,50.852779
2023-03-05T01:29:58.280Z,50.852779
2023-03-05T01:30:58.294Z,50.852779
2023-03-05T01:31:58.301Z,50.852779
2023-03-05T01:32:58.277Z,50.852779
2023-03-05T01:33:58.249Z,50.852779
2023-03-05T01:34:58.279Z,50.852779
2023-03-05T01:35:58.291Z,50.852779
2023-03-05T01:36:58.355Z,50.852779
2023-03-05T01:37:58.234Z,50.852779
2023-03-05T01:38:58.234Z,50.852779
2023-03-05T01:39:58.219Z,50.852779
2023-03-05T01:40:58.208Z,50.852779
2023-03-05T01:41:58.224Z,50.852779
2023-03-05T01:42:58.196Z,50.852779
2023-03-05T01:43:58.217Z,50.852779
2023-03-05T01:44:58.178Z,50.852779
2023-03-05T01:45:58.195Z,50.852829
2023-03-05T01:46:58.169Z,50.852829
2023-03-05T01:47:58.279Z,50.852688
2023-03-05T01:48:58.297Z,50.852692
2023-03-05T01:49:58.146Z,50.852688
2023-03-05T01:50:58.138Z,50.852654
2023-03-05T01:51:58.144Z,50.852757
2023-03-05T01:52:58.156Z,50.852772
2023-03-05T01:53:58.184Z,50.852760
2023-03-05T01:54:58.120Z,50.852768
2023-03-05T01:55:58.105Z,50.852753
2023-03-05T01:56:58.109Z,50.852734
2023-03-05T01:57:58.109Z,50.852848
2023-03-05T01:58:58.089Z,50.852783
2023-03-05T01:59:58.609Z,50.852753
2023-03-05T02:00:58.103Z,50.852737
2023-03-05T02:01:58.076Z,50.852783
2023-03-05T02:02:58.073Z,50.852844
2023-03-05T02:03:58.079Z,50.852753
2023-03-05T02:04:58.078Z,50.852734
2023-03-05T02:05:58.056Z,50.852760
2023-03-05T02:06:58.036Z,50.852760
2023-03-05T02:07:58.038Z,50.852734
2023-03-05T02:08:58.022Z,50.852695
2023-03-05T02:09:58.015Z,50.852779
2023-03-05T02:10:58.021Z,50.852734
2023-03-05T02:11:58.001Z,50.852684
2023-03-05T02:12:58.018Z,50.852695
2023-03-05T02:13:57.982Z,50.852737
2023-03-05T02:14:58.012Z,50.852737
2023-03-05T02:15:57.977Z,50.852715
2023-03-05T02:16:58.080Z,50.852810
2023-03-05T02:17:57.962Z,50.852814
2023-03-05T02:18:57.961Z,50.852772
2023-03-05T02:19:57.975Z,50.852715
2023-03-05T02:20:58.021Z,50.852718
2023-03-05T02:21:57.943Z,50.852791
2023-03-05T02:22:57.933Z,50.852730
2023-03-05T02:23:57.931Z,50.852802
2023-03-05T02:24:57.918Z,50.852741
2023-03-05T02:25:57.940Z,50.852768
2023-03-05T02:26:57.929Z,50.852806
2023-03-05T02:27:57.903Z,50.852882
2023-03-05T02:28:57.907Z,50.852871
2023-03-05T02:29:57.896Z,50.852768
2023-03-05T02:30:57.883Z,50.852798
2023-03-05T02:31:58.120Z,50.852722
2023-03-05T02:32:57.890Z,50.852852
2023-03-05T02:33:57.862Z,50.852638
2023-03-05T02:34:57.873Z,50.852612
2023-03-05T02:35:57.880Z,50.852779
2023-03-05T02:36:57.852Z,50.852650
2023-03-05T02:37:57.833Z,50.852844
2023-03-05T02:38:57.864Z,50.853092
2023-03-05T02:39:57.853Z,50.852821
2023-03-05T02:40:57.827Z,50.852867
2023-03-05T02:41:57.821Z,50.852928
2023-03-05T02:42:57.813Z,50.852966
2023-03-05T02:43:57.805Z,50.852814
2023-03-05T02:44:57.799Z,50.852734
2023-03-05T02:45:58.046Z,50.853016
2023-03-05T02:46:57.780Z,50.852997
2023-03-05T02:47:57.778Z,50.852955
2023-03-05T02:48:57.793Z,50.852779
2023-03-05T02:49:57.771Z,50.852516
2023-03-05T02:50:57.789Z,50.852673
2023-03-05T02:51:57.857Z,50.852680
2023-03-05T02:52:57.748Z,50.852783
2023-03-05T02:53:57.755Z,50.852844
2023-03-05T02:54:57.730Z,50.852814
2023-03-05T02:55:57.748Z,50.852726
2023-03-05T02:56:57.745Z,50.852650
2023-03-05T02:57:57.703Z,50.852707
2023-03-05T02:58:57.701Z,50.852707
2023-03-05T02:59:57.747Z,50.852707
2023-03-05T03:00:57.700Z,50.852707
2023-03-05T03:01:57.680Z,50.852859
2023-03-05T03:02:57.757Z,50.852901
2023-03-05T03:03:57.688Z,50.852814
2023-03-05T03:04:57.662Z,50.852791
2023-03-05T03:05:57.656Z,50.852921
2023-03-05T03:06:57.654Z,50.852863
2023-03-05T03:07:57.643Z,50.852818
2023-03-05T03:08:57.655Z,50.852692
2023-03-05T03:09:57.635Z,50.852699
2023-03-05T03:10:57.628Z,50.852703
2023-03-05T03:11:57.624Z,50.852753
2023-03-05T03:12:57.621Z,50.852730
2023-03-05T03:13:57.613Z,50.852779
2023-03-05T03:14:57.625Z,50.852707
2023-03-05T03:15:57.601Z,50.852879
2023-03-05T03:16:57.649Z,50.852718
2023-03-05T03:17:57.594Z,50.852741
2023-03-05T03:18:57.597Z,50.852707
2023-03-05T03:19:57.593Z,50.852768
2023-03-05T03:20:57.596Z,50.852768
2023-03-05T03:21:57.584Z,50.852741
2023-03-05T03:22:57.560Z,50.852737
2023-03-05T03:23:57.553Z,50.852795
2023-03-05T03:24:57.569Z,50.852695
2023-03-05T03:25:57.539Z,50.852661
2023-03-05T03:26:57.553Z,50.852737
2023-03-05T03:27:57.532Z,50.852711
2023-03-05T03:28:57.521Z,50.852654
2023-03-05T03:29:57.520Z,50.852730
2023-03-05T03:30:57.632Z,50.852726
2023-03-05T03:31:57.564Z,50.852818
2023-03-05T03:32:57.505Z,50.852741
2023-03-05T03:33:57.499Z,50.852627
2023-03-05T03:34:57.505Z,50.852768
2023-03-05T03:35:57.523Z,50.852745
2023-03-05T03:36:57.512Z,50.852692
2023-03-05T03:37:57.479Z,50.852432
2023-03-05T03:38:57.486Z,50.852627
2023-03-05T03:39:57.465Z,50.852871
2023-03-05T03:40:57.458Z,50.852791
2023-03-05T03:41:57.461Z,50.852757
2023-03-05T03:42:57.485Z,50.852875
2023-03-05T03:43:57.456Z,50.852692
2023-03-05T03:44:57.434Z,50.853004
2023-03-05T03:45:57.457Z,50.852749
2023-03-05T03:46:57.442Z,50.852859
2023-03-05T03:47:57.419Z,50.852856
2023-03-05T03:48:57.448Z,50.852791
2023-03-05T03:49:57.405Z,50.852818
2023-03-05T03:50:57.397Z,50.852867
2023-03-05T03:51:57.511Z,50.852749
2023-03-05T03:52:57.390Z,50.852779
2023-03-05T03:53:57.401Z,50.852650
2023-03-05T03:54:57.379Z,50.852715
2023-03-05T03:55:57.367Z,50.852783
2023-03-05T03:56:57.426Z,50.852863
2023-03-05T03:57:57.393Z,50.852650
2023-03-05T03:58:57.382Z,50.852810
2023-03-05T03:59:57.379Z,50.852901
2023-03-05T04:00:57.343Z,50.852886
2023-03-05T04:01:57.327Z,50.852802
2023-03-05T04:02:57.339Z,50.852867
2023-03-05T04:03:57.363Z,50.852768
2023-03-05T04:04:57.315Z,50.852757
2023-03-05T04:05:57.309Z,50.852726
2023-03-05T04:06:57.307Z,50.852684
2023-03-05T04:07:57.298Z,50.852680
2023-03-05T04:08:57.321Z,50.852726
2023-03-05T04:09:57.286Z,50.852806
2023-03-05T04:10:57.284Z,50.852795
2023-03-05T04:11:57.277Z,50.852806
2023-03-05T04:12:57.266Z,50.852722
2023-03-05T04:13:57.275Z,50.852715
2023-03-05T04:14:57.263Z,50.852768
2023-03-05T04:15:57.293Z,50.852688
2023-03-05T04:16:57.244Z,50.852612
2023-03-05T04:17:57.243Z,50.852631
2023-03-05T04:18:57.238Z,50.852737
2023-03-05T04:19:57.225Z,50.852688
2023-03-05T04:20:57.236Z,50.852650
2023-03-05T04:21:57.221Z,50.852665
2023-03-05T04:22:57.209Z,50.852528
2023-03-05T04:23:57.196Z,50.852463
2023-03-05T04:24:57.213Z,50.852463
2023-03-05T04:25:57.199Z,50.852695
2023-03-05T04:26:57.178Z,50.852821
2023-03-05T04:27:57.174Z,50.853168
2023-03-05T04:28:57.187Z,50.853100
2023-03-05T04:29:57.154Z,50.852909
2023-03-05T04:30:57.176Z,50.852833
2023-03-05T04:31:57.179Z,50.852768
2023-03-05T04:32:57.149Z,50.852692
2023-03-05T04:33:57.139Z,50.852631
2023-03-05T04:34:57.157Z,50.852726
2023-03-05T04:35:57.199Z,50.852821
2023-03-05T04:36:57.130Z,50.852631
2023-03-05T04:37:57.113Z,50.852654
2023-03-05T04:38:57.116Z,50.852676
2023-03-05T04:39:57.098Z,50.852654
2023-03-05T04:40:57.138Z,50.852757
2023-03-05T04:41:57.092Z,50.852798
2023-03-05T04:42:57.083Z,50.852852
2023-03-05T04:43:57.068Z,50.852989
2023-03-05T04:44:57.063Z,50.852985
2023-03-05T04:45:57.063Z,50.852852
2023-03-05T04:46:57.077Z,50.853016
2023-03-05T04:47:57.040Z,50.852924
2023-03-05T04:48:57.039Z,50.852810
2023-03-05T04:49:57.031Z,50.853107
2023-03-05T04:50:57.028Z,50.852753
2023-03-05T04:51:57.041Z,50.852764
2023-03-05T04:52:57.023Z,50.852757
2023-03-05T04:53:57.005Z,50.852970
2023-03-05T04:54:57.003Z,50.852859
2023-03-05T04:55:56.997Z,50.852936
2023-03-05T04:56:56.991Z,50.852959
2023-03-05T04:57:57.000Z,50.852848
2023-03-05T04:58:56.985Z,50.852760
2023-03-05T04:59:56.989Z,50.852741
2023-03-05T05:00:56.967Z,50.852848
2023-03-05T05:01:56.972Z,50.852928
2023-03-05T05:02:57.043Z,50.852863
2023-03-05T05:03:56.938Z,50.852783
2023-03-05T05:04:56.946Z,50.852646
2023-03-05T05:05:56.947Z,50.852757
2023-03-05T05:06:56.923Z,50.852962
2023-03-05T05:07:56.927Z,50.853123
2023-03-05T05:08:56.911Z,50.853020
2023-03-05T05:09:56.926Z,50.852772
2023-03-05T05:10:56.901Z,50.852467
2023-03-05T05:11:56.889Z,50.852669
2023-03-05T05:12:56.889Z,50.852669
2023-03-05T05:13:56.878Z,50.852669
2023-03-05T05:14:56.866Z,50.852669
2023-03-05T05:15:56.897Z,50.852669
2023-03-05T05:16:56.862Z,50.852669
2023-03-05T05:17:56.855Z,50.852669
2023-03-05T05:18:56.842Z,50.852669
2023-03-05T05:19:56.846Z,50.852669
2023-03-05T05:20:56.851Z,50.852669
2023-03-05T05:21:56.825Z,50.852669
2023-03-05T05:22:56.836Z,50.852669
2023-03-05T05:23:56.809Z,50.852669
2023-03-05T05:24:56.803Z,50.852669
2023-03-05T05:25:56.816Z,50.852669
2023-03-05T05:26:56.787Z,50.852669
2023-03-05T05:27:56.784Z,50.852669
2023-03-05T05:28:56.777Z,50.852669
2023-03-05T05:29:56.764Z,50.852669
2023-03-05T05:30:56.772Z,50.852669
2023-03-05T05:31:56.768Z,50.852669
2023-03-05T05:32:56.748Z,50.852669
2023-03-05T05:33:56.741Z,50.852669
2023-03-05T05:34:56.745Z,50.852669
2023-03-05T05:35:56.772Z,50.852669
2023-03-05T05:36:56.741Z,50.852669
2023-03-05T05:37:56.740Z,50.852669
2023-03-05T05:38:56.721Z,50.852669
2023-03-05T05:39:56.718Z,50.852669
2023-03-05T05:40:56.709Z,50.852669
2023-03-05T05:41:56.710Z,50.852669
2023-03-05T05:42:56.694Z,50.852669
2023-03-05T05:43:56.701Z,50.852669
2023-03-05T05:44:56.676Z,50.852669
2023-03-05T05:45:56.783Z,50.852669
2023-03-05T05:46:56.672Z,50.852669
2023-03-05T05:47:56.660Z,50.852669
2023-03-05T05:48:56.685Z,50.852669
2023-03-05T05:49:56.654Z,50.852669
2023-03-05T05:50:56.649Z,50.852669
2023-03-05T05:51:56.657Z,50.852669
2023-03-05T05:52:56.633Z,50.852669
2023-03-05T05:53:56.626Z,50.852669
2023-03-05T05:54:56.622Z,50.852669
2023-03-05T05:55:56.618Z,50.852669
2023-03-05T05:56:56.629Z,50.852669
2023-03-05T05:57:56.608Z,50.852669
2023-03-05T05:58:56.603Z,50.852669
2023-03-05T05:59:56.599Z,50.852669
2023-03-05T06:00:56.593Z,50.852669
2023-03-05T06:01:56.642Z,50.852669
2023-03-05T06:02:56.614Z,50.852669
2023-03-05T06:03:56.564Z,50.852669
2023-03-05T06:04:58.189Z,50.852669
2023-03-05T06:05:56.570Z,50.852669
2023-03-05T06:06:56.555Z,50.852669
2023-03-05T06:07:56.544Z,50.852669
2023-03-05T06:08:56.537Z,50.852669
2023-03-05T06:09:56.529Z,50.852669
2023-03-05T06:10:56.545Z,50.852669
2023-03-05T06:11:56.521Z,50.852669
2023-03-05T06:12:56.514Z,50.852669
2023-03-05T06:13:56.558Z,50.852669
2023-03-05T06:15:03.521Z,50.852669
2023-03-05T06:15:56.506Z,50.852669
2023-03-05T06:16:56.570Z,50.852669
2023-03-05T06:17:56.481Z,50.852669
2023-03-05T06:18:56.498Z,50.852669
2023-03-05T06:19:56.474Z,50.852669
2023-03-05T06:20:56.467Z,50.852669
2023-03-05T06:21:56.457Z,50.852669
2023-03-05T06:22:56.457Z,50.852669
2023-03-05T06:23:56.445Z,50.852669
2023-03-05T06:24:56.477Z,50.852669
2023-03-05T06:25:56.433Z,50.852669
2023-03-05T06:26:56.439Z,50.852669
2023-03-05T06:27:56.422Z,50.852669
2023-03-05T06:28:56.420Z,50.852669
2023-03-05T06:29:56.405Z,50.852669
2023-03-05T06:30:56.450Z,50.852669
2023-03-05T06:31:56.401Z,50.852669
2023-03-05T06:32:56.382Z,50.852669
2023-03-05T06:33:56.404Z,50.852669
2023-03-05T06:34:56.388Z,50.852669
2023-03-05T06:35:56.394Z,50.852669
2023-03-05T06:36:56.369Z,50.852669
2023-03-05T06:37:56.353Z,50.852669
2023-03-05T06:38:56.371Z,50.852669
2023-03-05T06:39:56.357Z,50.852669
2023-03-05T06:40:56.341Z,50.852669
2023-03-05T06:41:56.347Z,50.852669
2023-03-05T06:42:56.327Z,50.852669
2023-03-05T06:43:56.342Z,50.852669
2023-03-05T06:44:56.311Z,50.852669
2023-03-05T06:45:56.345Z,50.852669
2023-03-05T06:46:56.301Z,50.852669
2023-03-05T06:47:56.292Z,50.852669
2023-03-05T06:48:56.294Z,50.852669
2023-03-05T06:49:56.303Z,50.852669
2023-03-05T06:50:56.275Z,50.852669
2023-03-05T06:51:56.284Z,50.852669
2023-03-05T06:52:56.272Z,50.852669
2023-03-05T06:53:56.257Z,50.852669
2023-03-05T06:54:56.249Z,50.852669
2023-03-05T06:55:56.239Z,50.852669
2023-03-05T06:56:56.258Z,50.852669
2023-03-05T06:57:56.230Z,50.852669
2023-03-05T06:58:56.223Z,50.852669
2023-03-05T06:59:56.226Z,50.852669
2023-03-05T07:00:56.295Z,50.852669
2023-03-05T07:01:56.204Z,50.852669
2023-03-05T07:02:56.216Z,50.852669
2023-03-05T07:03:56.193Z,50.852669
2023-03-05T07:04:56.200Z,50.852669
2023-03-05T07:05:56.179Z,50.852669
2023-03-05T07:06:56.184Z,50.852669
2023-03-05T07:07:56.191Z,50.852669
2023-03-05T07:08:56.161Z,50.852669
2023-03-05T07:09:56.152Z,50.852669
2023-03-05T07:10:56.142Z,50.852669
2023-03-05T07:11:56.142Z,50.852669
2023-03-05T07:12:56.185Z,50.852669
2023-03-05T07:13:56.131Z,50.852669
2023-03-05T07:14:56.125Z,50.852669
2023-03-05T07:15:56.204Z,50.852669
2023-03-05T07:16:56.120Z,50.852669
2023-03-05T07:17:56.130Z,50.852669
2023-03-05T07:18:56.113Z,50.852669
2023-03-05T07:19:56.100Z,50.852669
2023-03-05T07:20:56.088Z,50.852669
2023-03-05T07:21:56.081Z,50.852669
2023-03-05T07:22:56.106Z,50.852669
2023-03-05T07:23:56.090Z,50.852669
2023-03-05T07:24:56.084Z,50.852669
2023-03-05T07:25:56.058Z,50.852669
2023-03-05T07:26:56.056Z,50.852669
2023-03-05T07:27:56.066Z,50.852669
2023-03-05T07:28:56.043Z,50.852669
2023-03-05T07:29:56.051Z,50.852669
2023-03-05T07:30:56.118Z,50.852669
2023-03-05T07:31:56.028Z,50.852669
2023-03-05T07:32:56.027Z,50.852669
2023-03-05T07:33:56.033Z,50.852669
2023-03-05T07:34:56.009Z,50.852669
2023-03-05T07:35:56.051Z,50.852669
2023-03-05T07:36:55.998Z,50.852669
2023-03-05T07:37:55.993Z,50.852669
2023-03-05T07:38:56.012Z,50.852669
2023-03-05T07:39:55.971Z,50.852646
2023-03-05T07:40:55.993Z,50.852661
2023-03-05T07:41:55.960Z,50.852776
2023-03-05T07:42:55.981Z,50.852741
2023-03-05T07:43:55.950Z,50.852772
2023-03-05T07:44:55.965Z,50.852757
2023-03-05T07:45:55.962Z,50.852634
2023-03-05T07:46:55.944Z,50.852795
2023-03-05T07:47:55.928Z,50.852650
2023-03-05T07:48:55.937Z,50.852894
2023-03-05T07:49:55.930Z,50.853058
2023-03-05T07:50:55.891Z,50.852715
2023-03-05T07:51:55.894Z,50.852753
2023-03-05T07:52:55.915Z,50.852779
2023-03-05T07:53:55.886Z,50.852798
2023-03-05T07:54:55.879Z,50.852814
2023-03-05T07:55:55.880Z,50.852909
2023-03-05T07:56:55.894Z,50.852787
2023-03-05T07:57:55.852Z,50.852806
2023-03-05T07:58:55.857Z,50.852871
2023-03-05T07:59:55.859Z,50.852776
2023-03-05T08:00:55.839Z,50.852718
2023-03-05T08:01:55.843Z,50.852886
2023-03-05T08:02:55.824Z,50.852859
2023-03-05T08:03:55.833Z,50.852745
2023-03-05T08:04:55.813Z,50.852776
2023-03-05T08:05:55.805Z,50.852764
2023-03-05T08:06:55.800Z,50.852821
2023-03-05T08:07:55.800Z,50.852875
2023-03-05T08:08:55.832Z,50.852951
2023-03-05T08:09:55.808Z,50.852844
2023-03-05T08:10:55.797Z,50.852722
2023-03-05T08:11:55.767Z,50.852791
2023-03-05T08:12:55.767Z,50.852745
2023-03-05T08:13:55.757Z,50.852890
2023-03-05T08:14:55.771Z,50.852718
2023-03-05T08:15:55.790Z,50.852749
2023-03-05T08:16:55.749Z,50.852749
2023-03-05T08:17:55.741Z,50.852734
2023-03-05T08:18:55.741Z,50.852764
2023-03-05T08:19:55.754Z,50.852955
2023-03-05T08:20:55.740Z,50.852814
2023-03-05T08:21:56.497Z,50.852787
2023-03-05T08:22:55.704Z,50.852810
2023-03-05T08:23:55.696Z,50.852795
2023-03-05T08:24:55.707Z,50.852772
2023-03-05T08:25:55.692Z,50.852810
2023-03-05T08:26:55.693Z,50.852676
2023-03-05T08:27:55.691Z,50.852718
2023-03-05T08:28:55.664Z,50.852718
2023-03-05T08:29:55.654Z,50.852795
2023-03-05T08:30:55.679Z,50.852646
2023-03-05T08:31:55.668Z,50.852657
2023-03-05T08:32:55.641Z,50.852768
2023-03-05T08:33:55.620Z,50.852791
2023-03-05T08:34:55.621Z,50.852806
2023-03-05T08:35:55.730Z,50.852787
2023-03-05T08:36:55.608Z,50.852810
2023-03-05T08:37:55.617Z,50.852802
2023-03-05T08:38:55.619Z,50.852776
2023-03-05T08:39:55.588Z,50.852806
2023-03-05T08:40:55.583Z,50.852783
2023-03-05T08:41:55.638Z,50.852779
2023-03-05T08:42:55.589Z,50.852802
2023-03-05T08:43:55.564Z,50.852749
2023-03-05T08:44:55.553Z,50.852814
2023-03-05T08:45:55.568Z,50.852943
2023-03-05T08:46:55.571Z,50.852810
2023-03-05T08:47:55.534Z,50.852768
2023-03-05T08:48:55.556Z,50.852840
2023-03-05T08:49:55.575Z,50.852779
2023-03-05T08:50:55.511Z,50.852852
2023-03-05T08:51:55.509Z,50.852886
2023-03-05T08:52:55.511Z,50.852882
2023-03-05T08:53:55.492Z,50.852978
2023-03-05T08:54:55.516Z,50.852825
2023-03-05T08:55:55.504Z,50.852760
2023-03-05T08:56:55.484Z,50.852745
2023-03-05T08:57:55.473Z,50.852741
2023-03-05T08:58:55.461Z,50.852715
2023-03-05T08:59:55.468Z,50.852749
2023-03-05T09:00:55.464Z,50.852779
2023-03-05T09:01:55.501Z,50.852703
2023-03-05T09:02:55.531Z,50.852905
2023-03-05T09:03:55.448Z,50.852776
2023-03-05T09:04:55.445Z,50.852802
2023-03-05T09:05:55.412Z,50.852768
2023-03-05T09:06:55.417Z,50.852776
2023-03-05T09:07:55.399Z,50.852715
2023-03-05T09:08:55.400Z,50.852734
2023-03-05T09:09:55.387Z,50.852692
2023-03-05T09:10:55.402Z,50.852699
2023-03-05T09:11:55.376Z,50.852802
2023-03-05T09:12:55.386Z,50.852688
2023-03-05T09:13:55.363Z,50.852734
2023-03-05T09:14:55.378Z,50.852825
2023-03-05T09:15:55.384Z,50.852810
2023-03-05T09:16:55.379Z,50.852856
2023-03-05T09:17:55.347Z,50.852993
2023-03-05T09:18:55.341Z,50.852917
2023-03-05T09:19:55.331Z,50.852886
2023-03-05T09:20:55.346Z,50.852901
2023-03-05T09:21:56.964Z,50.852962
2023-03-05T09:22:55.327Z,50.852913
2023-03-05T09:23:55.310Z,50.852821
2023-03-05T09:24:55.311Z,50.852821
2023-03-05T09:25:55.316Z,50.852791
2023-03-05T09:26:55.298Z,50.852837
2023-03-05T09:27:55.288Z,50.852791
2023-03-05T09:28:55.276Z,50.852806
2023-03-05T09:29:55.294Z,50.852772
2023-03-05T09:30:55.292Z,50.852669
2023-03-05T09:31:55.332Z,50.852753
2023-03-05T09:32:55.274Z,50.852859
2023-03-05T09:33:55.264Z,50.852802
2023-03-05T09:34:55.259Z,50.852737
2023-03-05T09:35:55.291Z,50.852764
2023-03-05T09:36:55.229Z,50.852932
2023-03-05T09:37:55.218Z,50.852959
2023-03-05T09:38:55.221Z,50.852852
2023-03-05T09:39:55.223Z,50.852726
2023-03-05T09:40:55.225Z,50.852596
2023-03-05T09:41:55.235Z,50.852852
2023-03-05T09:42:55.201Z,50.852894
2023-03-05T09:43:55.191Z,50.852833
2023-03-05T09:44:55.235Z,50.852867
2023-03-05T09:45:55.221Z,50.852856
2023-03-05T09:46:55.182Z,50.852798
2023-03-05T09:47:55.161Z,50.852852
2023-03-05T09:48:55.166Z,50.852783
2023-03-05T09:49:55.159Z,50.852821
2023-03-05T09:50:55.184Z,50.852848
2023-03-05T09:51:55.150Z,50.852814
2023-03-05T09:52:55.132Z,50.852810
2023-03-05T09:53:55.143Z,50.852852
2023-03-05T09:54:55.127Z,50.852917
2023-03-05T09:55:55.136Z,50.852882
2023-03-05T09:56:55.115Z,50.852833
2023-03-05T09:57:55.145Z,50.852818
2023-03-05T09:58:56.226Z,50.852798
2023-03-05T09:59:55.114Z,50.852837
2023-03-05T10:00:55.084Z,50.852734
2023-03-05T10:01:55.091Z,50.852772
2023-03-05T10:02:55.092Z,50.853020
2023-03-05T10:03:55.099Z,50.852966
2023-03-05T10:04:55.078Z,50.852875
2023-03-05T10:05:55.065Z,50.852634
2023-03-05T10:06:55.061Z,50.852680
2023-03-05T10:07:55.063Z,50.852642
2023-03-05T10:08:55.046Z,50.852734
2023-03-05T10:09:55.047Z,50.852711
2023-03-05T10:10:55.030Z,50.852711
2023-03-05T10:11:55.061Z,50.852818
2023-03-05T10:12:55.013Z,50.852833
2023-03-05T10:13:55.027Z,50.852894
2023-03-05T10:14:55.014Z,50.852978
2023-03-05T10:15:54.996Z,50.852875
2023-03-05T10:16:55.042Z,50.852856
2023-03-05T10:17:54.999Z,50.852791
2023-03-05T10:18:54.980Z,50.852821
2023-03-05T10:19:54.974Z,50.852886
2023-03-05T10:20:54.959Z,50.852814
2023-03-05T10:21:54.962Z,50.852791
2023-03-05T10:22:54.945Z,50.852768
2023-03-05T10:23:54.937Z,50.852787
2023-03-05T10:24:54.959Z,50.852760
2023-03-05T10:25:54.967Z,50.852715
2023-03-05T10:26:54.983Z,50.852703
2023-03-05T10:27:54.912Z,50.852715
2023-03-05T10:28:54.907Z,50.852730
2023-03-05T10:29:54.917Z,50.852734
2023-03-05T10:30:54.926Z,50.852749
2023-03-05T10:31:54.917Z,50.852772
2023-03-05T10:32:54.882Z,50.852726
2023-03-05T10:33:54.894Z,50.852749
2023-03-05T10:34:54.879Z,50.852753
2023-03-05T10:35:54.971Z,50.852791
2023-03-05T10:36:56.688Z,50.852829
2023-03-05T10:37:54.842Z,50.852753
2023-03-05T10:38:54.849Z,50.852730
2023-03-05T10:39:54.842Z,50.852753
2023-03-05T10:40:54.829Z,50.852749
2023-03-05T10:41:54.835Z,50.852715
2023-03-05T10:42:54.835Z,50.852711
2023-03-05T10:43:54.861Z,50.852703
2023-03-05T10:44:54.836Z,50.852722
2023-03-05T10:45:54.836Z,50.852741
2023-03-05T10:46:55.995Z,50.852737
2023-03-05T10:47:54.789Z,50.852951
2023-03-05T10:48:54.804Z,50.853001
2023-03-05T10:49:54.817Z,50.852844
2023-03-05T10:50:54.783Z,50.852825
2023-03-05T10:51:54.753Z,50.852753
2023-03-05T10:52:54.758Z,50.852795
2023-03-05T10:53:54.747Z,50.852791
2023-03-05T10:54:54.752Z,50.852821
2023-03-05T10:55:54.799Z,50.852695
2023-03-05T10:56:54.739Z,50.852757
2023-03-05T10:57:54.730Z,50.852715
2023-03-05T10:58:54.715Z,50.852669
2023-03-05T10:59:54.724Z,50.852692
2023-03-05T11:00:54.782Z,50.852707
2023-03-05T11:01:54.753Z,50.852688
2023-03-05T11:02:54.805Z,50.852673
2023-03-05T11:03:54.708Z,50.852757
2023-03-05T11:04:54.752Z,50.852833
2023-03-05T11:05:54.678Z,50.852779
2023-03-05T11:06:54.668Z,50.852734
2023-03-05T11:07:54.659Z,50.852768
2023-03-05T11:08:54.660Z,50.852695
2023-03-05T11:09:54.648Z,50.852753
2023-03-05T11:10:54.657Z,50.852844
2023-03-05T11:11:54.653Z,50.852821
2023-03-05T11:12:54.653Z,50.852829
2023-03-05T11:13:54.624Z,50.852711
2023-03-05T11:14:54.620Z,50.852749
2023-03-05T11:15:54.636Z,50.852577
2023-03-05T11:16:54.619Z,50.852734
2023-03-05T11:17:54.596Z,50.852829
2023-03-05T11:18:54.599Z,50.852787
2023-03-05T11:19:54.581Z,50.852745
2023-03-05T11:20:54.593Z,50.852795
2023-03-05T11:21:54.604Z,50.852833
2023-03-05T11:22:54.572Z,50.852818
2023-03-05T11:23:54.560Z,50.852711
2023-03-05T11:24:54.557Z,50.852650